This is the latest recevied weather packets stored in our database for station/object KI4FRU. If no packets are shown the sender has not sent any weather packets the latest 10 day(s).
| Time | Temp. | Humidity | Pressure | Rain* | Wind** | Luminosity | Snow |
|---|---|---|---|---|---|---|---|
| 1777306924 | 20° C | 63% | 1062.8 hPa | 0 mm | - | 99 W/m² | - |
| 1777306621 | 18.33° C | 69% | 1062.7 hPa | 0 mm | - | 761 W/m² | - |
| 1777306317 | 20° C | 65% | 1062.6 hPa | 0 mm | - | 176 W/m² | - |
| 1777306012 | 18.33° C | 67% | 1062.8 hPa | 0 mm | - | 792 W/m² | - |
| 1777305709 | 17.78° C | 71% | 1062.9 hPa | 0 mm | - | 359 W/m² | - |
| 1777305405 | 18.33° C | 71% | 1063 hPa | 0 mm | - | 174 W/m² | - |
| 1777305099 | 17.78° C | 70% | 1062.8 hPa | 0 mm | - | 279 W/m² | - |
| 1777304794 | 16.67° C | 78% | 1062.7 hPa | 0 mm | - | 700 W/m² | - |
| 1777304491 | 16.11° C | 75% | 1062.8 hPa | 0 mm | - | 593 W/m² | - |
| 1777304184 | 16.67° C | 75% | 1062.7 hPa | 0 mm | - | 196 W/m² | - |
| 1777303881 | 16.67° C | 82% | 1062.6 hPa | 0 mm | - | 75 W/m² | - |
| 1777303577 | 15.56° C | 80% | 1062.6 hPa | 0 mm | - | 165 W/m² | - |
| 1777303275 | 16.67° C | 77% | 1062.7 hPa | 0 mm | - | 97 W/m² | - |
| 1777302973 | 16.67° C | 77% | 1062.5 hPa | 0 mm | - | 93 W/m² | - |
| 1777302669 | 15.56° C | 77% | 1062.7 hPa | 0 mm | - | 102 W/m² | - |
| 1777302368 | 15.56° C | 77% | 1062.7 hPa | 0 mm | - | 102 W/m² | - |
| 1777302065 | 15° C | 77% | 1062.6 hPa | 0 mm | - | 155 W/m² | - |
| 1777301763 | 15.56° C | 78% | 1062.8 hPa | 0 mm | - | 130 W/m² | - |
| 1777301460 | 15.56° C | 79% | 1062.8 hPa | 0 mm | - | 143 W/m² | - |
| 1777301156 | 15.56° C | 78% | 1063 hPa | 0 mm | - | 118 W/m² | - |
| 1777300854 | 15° C | 79% | 1063 hPa | 0 mm | - | 122 W/m² | - |
| 1777300552 | 15.56° C | 79% | 1062.9 hPa | 0 mm | - | 96 W/m² | - |
| 1777300249 | 15.56° C | 78% | 1063 hPa | 0 mm | - | 127 W/m² | - |
| 1777299945 | 15° C | 82% | 1062.9 hPa | 0 mm | - | 118 W/m² | - |
| 1777299642 | 15° C | 79% | 1063 hPa | 0 mm | - | 164 W/m² | - |
* Rain latest hour (hover to see other rain measurements)
** Current wind speed in m/s (hover to see current wind gust speed)